sensor_id;sensor_type;location;lat;lon;timestamp;P1;durP1;ratioP1;P2;durP2;ratioP2
17604;SDS011;8921;50.964;6.800;2023-10-13T00:02:15;12.73;;;8.60;;
17604;SDS011;8921;50.964;6.800;2023-10-13T00:04:43;16.07;;;7.93;;
17604;SDS011;8921;50.964;6.800;2023-10-13T00:07:12;16.00;;;8.50;;
17604;SDS011;8921;50.964;6.800;2023-10-13T00:09:40;17.63;;;8.57;;
17604;SDS011;8921;50.964;6.800;2023-10-13T00:12:08;13.00;;;8.20;;
17604;SDS011;8921;50.964;6.800;2023-10-13T00:14:36;12.27;;;8.77;;
17604;SDS011;8921;50.964;6.800;2023-10-13T00:17:05;13.27;;;8.80;;
17604;SDS011;8921;50.964;6.800;2023-10-13T00:19:36;21.13;;;9.10;;
17604;SDS011;8921;50.964;6.800;2023-10-13T00:22:16;17.33;;;9.50;;
17604;SDS011;8921;50.964;6.800;2023-10-13T00:24:44;13.80;;;8.70;;
17604;SDS011;8921;50.964;6.800;2023-10-13T00:27:13;14.97;;;8.40;;
17604;SDS011;8921;50.964;6.800;2023-10-13T00:29:58;14.00;;;9.67;;
17604;SDS011;8921;50.964;6.800;2023-10-13T00:32:43;15.10;;;8.80;;
17604;SDS011;8921;50.964;6.800;2023-10-13T00:35:11;14.27;;;8.40;;
17604;SDS011;8921;50.964;6.800;2023-10-13T00:37:39;14.03;;;8.30;;
17604;SDS011;8921;50.964;6.800;2023-10-13T00:40:07;13.93;;;9.13;;
17604;SDS011;8921;50.964;6.800;2023-10-13T00:42:36;18.87;;;9.23;;
17604;SDS011;8921;50.964;6.800;2023-10-13T00:45:04;14.00;;;9.10;;
17604;SDS011;8921;50.964;6.800;2023-10-13T00:47:33;12.83;;;8.57;;
17604;SDS011;8921;50.964;6.800;2023-10-13T00:50:04;19.30;;;8.77;;
17604;SDS011;8921;50.964;6.800;2023-10-13T00:52:32;16.97;;;8.10;;
17604;SDS011;8921;50.964;6.800;2023-10-13T00:55:00;13.10;;;8.87;;
17604;SDS011;8921;50.964;6.800;2023-10-13T00:57:29;16.63;;;8.93;;
17604;SDS011;8921;50.964;6.800;2023-10-13T00:59:57;18.60;;;9.50;;
17604;SDS011;8921;50.964;6.800;2023-10-13T01:02:25;17.10;;;8.47;;
17604;SDS011;8921;50.964;6.800;2023-10-13T01:05:06;15.47;;;8.33;;
17604;SDS011;8921;50.964;6.800;2023-10-13T01:07:37;13.80;;;8.10;;
17604;SDS011;8921;50.964;6.800;2023-10-13T01:10:09;16.40;;;8.93;;
17604;SDS011;8921;50.964;6.800;2023-10-13T01:12:33;13.87;;;9.07;;
17604;SDS011;8921;50.964;6.800;2023-10-13T01:15:02;16.10;;;8.97;;
17604;SDS011;8921;50.964;6.800;2023-10-13T01:17:30;13.97;;;8.27;;
17604;SDS011;8921;50.964;6.800;2023-10-13T01:19:58;14.77;;;8.97;;
17604;SDS011;8921;50.964;6.800;2023-10-13T01:22:27;15.63;;;8.60;;
17604;SDS011;8921;50.964;6.800;2023-10-13T01:24:55;15.97;;;9.10;;
17604;SDS011;8921;50.964;6.800;2023-10-13T01:27:23;12.10;;;8.57;;
17604;SDS011;8921;50.964;6.800;2023-10-13T01:29:52;11.67;;;7.90;;
17604;SDS011;8921;50.964;6.800;2023-10-13T01:32:20;15.83;;;9.70;;
17604;SDS011;8921;50.964;6.800;2023-10-13T01:34:48;14.83;;;9.30;;
17604;SDS011;8921;50.964;6.800;2023-10-13T01:37:16;12.73;;;8.80;;
17604;SDS011;8921;50.964;6.800;2023-10-13T01:39:45;13.50;;;8.53;;
17604;SDS011;8921;50.964;6.800;2023-10-13T01:42:13;20.13;;;9.43;;
17604;SDS011;8921;50.964;6.800;2023-10-13T01:44:41;17.63;;;9.77;;
17604;SDS011;8921;50.964;6.800;2023-10-13T01:47:09;18.07;;;10.27;;
17604;SDS011;8921;50.964;6.800;2023-10-13T01:49:38;14.63;;;9.57;;
17604;SDS011;8921;50.964;6.800;2023-10-13T01:52:09;17.50;;;10.00;;
17604;SDS011;8921;50.964;6.800;2023-10-13T01:54:37;14.60;;;9.90;;
17604;SDS011;8921;50.964;6.800;2023-10-13T01:57:08;17.77;;;9.70;;
17604;SDS011;8921;50.964;6.800;2023-10-13T01:59:37;13.90;;;8.57;;
17604;SDS011;8921;50.964;6.800;2023-10-13T02:02:05;15.13;;;9.73;;
17604;SDS011;8921;50.964;6.800;2023-10-13T02:04:33;16.53;;;9.90;;
17604;SDS011;8921;50.964;6.800;2023-10-13T02:07:01;15.17;;;9.40;;
17604;SDS011;8921;50.964;6.800;2023-10-13T02:09:30;17.30;;;10.93;;
17604;SDS011;8921;50.964;6.800;2023-10-13T02:11:58;14.27;;;9.70;;
17604;SDS011;8921;50.964;6.800;2023-10-13T02:14:26;13.63;;;9.47;;
17604;SDS011;8921;50.964;6.800;2023-10-13T02:16:54;17.53;;;10.03;;
17604;SDS011;8921;50.964;6.800;2023-10-13T02:19:23;14.27;;;9.23;;
17604;SDS011;8921;50.964;6.800;2023-10-13T02:21:51;15.30;;;9.87;;
17604;SDS011;8921;50.964;6.800;2023-10-13T02:24:20;13.27;;;9.17;;
17604;SDS011;8921;50.964;6.800;2023-10-13T02:26:48;19.60;;;9.83;;
17604;SDS011;8921;50.964;6.800;2023-10-13T02:29:16;18.63;;;11.00;;
17604;SDS011;8921;50.964;6.800;2023-10-13T02:31:44;14.67;;;9.50;;
17604;SDS011;8921;50.964;6.800;2023-10-13T02:34:13;12.27;;;9.20;;
17604;SDS011;8921;50.964;6.800;2023-10-13T02:36:41;13.93;;;8.90;;
17604;SDS011;8921;50.964;6.800;2023-10-13T02:39:15;16.27;;;9.83;;
17604;SDS011;8921;50.964;6.800;2023-10-13T02:41:43;13.70;;;10.17;;
17604;SDS011;8921;50.964;6.800;2023-10-13T02:44:14;13.83;;;9.67;;
17604;SDS011;8921;50.964;6.800;2023-10-13T02:46:48;13.00;;;9.57;;
17604;SDS011;8921;50.964;6.800;2023-10-13T02:49:17;13.67;;;9.60;;
17604;SDS011;8921;50.964;6.800;2023-10-13T02:51:45;17.20;;;10.00;;
17604;SDS011;8921;50.964;6.800;2023-10-13T02:54:13;13.80;;;10.10;;
17604;SDS011;8921;50.964;6.800;2023-10-13T02:56:42;18.13;;;9.53;;
17604;SDS011;8921;50.964;6.800;2023-10-13T02:59:16;14.70;;;11.40;;
17604;SDS011;8921;50.964;6.800;2023-10-13T03:01:44;19.63;;;10.17;;
17604;SDS011;8921;50.964;6.800;2023-10-13T03:04:12;13.60;;;10.47;;
17604;SDS011;8921;50.964;6.800;2023-10-13T03:06:40;21.10;;;12.20;;
17604;SDS011;8921;50.964;6.800;2023-10-13T03:09:09;20.23;;;15.13;;
17604;SDS011;8921;50.964;6.800;2023-10-13T03:11:49;23.23;;;13.37;;
17604;SDS011;8921;50.964;6.800;2023-10-13T03:14:26;18.10;;;9.77;;
17604;SDS011;8921;50.964;6.800;2023-10-13T03:16:52;15.53;;;9.30;;
17604;SDS011;8921;50.964;6.800;2023-10-13T03:19:19;17.70;;;10.07;;
17604;SDS011;8921;50.964;6.800;2023-10-13T03:21:47;14.83;;;11.10;;
17604;SDS011;8921;50.964;6.800;2023-10-13T03:24:16;16.60;;;10.53;;
17604;SDS011;8921;50.964;6.800;2023-10-13T03:26:44;11.27;;;8.80;;
17604;SDS011;8921;50.964;6.800;2023-10-13T03:29:12;15.47;;;9.87;;
17604;SDS011;8921;50.964;6.800;2023-10-13T03:31:40;12.97;;;8.70;;
17604;SDS011;8921;50.964;6.800;2023-10-13T03:34:09;16.70;;;10.03;;
17604;SDS011;8921;50.964;6.800;2023-10-13T03:36:37;14.30;;;9.83;;
17604;SDS011;8921;50.964;6.800;2023-10-13T03:39:08;14.43;;;10.30;;
17604;SDS011;8921;50.964;6.800;2023-10-13T03:41:36;15.17;;;9.97;;
17604;SDS011;8921;50.964;6.800;2023-10-13T03:44:05;15.00;;;10.33;;
17604;SDS011;8921;50.964;6.800;2023-10-13T03:46:39;17.17;;;10.17;;
17604;SDS011;8921;50.964;6.800;2023-10-13T03:49:08;15.80;;;10.00;;
17604;SDS011;8921;50.964;6.800;2023-10-13T03:51:36;15.30;;;10.03;;
17604;SDS011;8921;50.964;6.800;2023-10-13T03:54:04;14.13;;;9.70;;
17604;SDS011;8921;50.964;6.800;2023-10-13T03:56:35;16.37;;;10.60;;
17604;SDS011;8921;50.964;6.800;2023-10-13T03:59:06;19.77;;;13.17;;
17604;SDS011;8921;50.964;6.800;2023-10-13T04:01:37;18.13;;;10.97;;
17604;SDS011;8921;50.964;6.800;2023-10-13T04:04:24;18.40;;;10.57;;
17604;SDS011;8921;50.964;6.800;2023-10-13T04:07:01;15.47;;;9.60;;
17604;SDS011;8921;50.964;6.800;2023-10-13T04:09:29;18.07;;;10.00;;
17604;SDS011;8921;50.964;6.800;2023-10-13T04:12:00;16.03;;;10.43;;
17604;SDS011;8921;50.964;6.800;2023-10-13T04:14:32;16.30;;;10.07;;
17604;SDS011;8921;50.964;6.800;2023-10-13T04:17:21;18.17;;;10.60;;
17604;SDS011;8921;50.964;6.800;2023-10-13T04:19:50;16.70;;;11.03;;
17604;SDS011;8921;50.964;6.800;2023-10-13T04:22:34;25.53;;;12.50;;
17604;SDS011;8921;50.964;6.800;2023-10-13T04:25:23;16.47;;;10.87;;
17604;SDS011;8921;50.964;6.800;2023-10-13T04:33:20;17.73;;;11.67;;
17604;SDS011;8921;50.964;6.800;2023-10-13T04:36:09;18.53;;;12.47;;
17604;SDS011;8921;50.964;6.800;2023-10-13T04:38:40;21.77;;;11.30;;
17604;SDS011;8921;50.964;6.800;2023-10-13T04:41:27;25.53;;;11.37;;
17604;SDS011;8921;50.964;6.800;2023-10-13T04:43:58;15.70;;;10.77;;
17604;SDS011;8921;50.964;6.800;2023-10-13T04:46:32;20.20;;;12.27;;
17604;SDS011;8921;50.964;6.800;2023-10-13T04:49:06;17.87;;;11.43;;
17604;SDS011;8921;50.964;6.800;2023-10-13T04:51:37;18.67;;;11.10;;
17604;SDS011;8921;50.964;6.800;2023-10-13T04:54:17;18.37;;;12.27;;
17604;SDS011;8921;50.964;6.800;2023-10-13T04:57:00;27.47;;;19.80;;
17604;SDS011;8921;50.964;6.800;2023-10-13T04:59:47;18.13;;;11.23;;
17604;SDS011;8921;50.964;6.800;2023-10-13T05:02:30;14.33;;;10.07;;
17604;SDS011;8921;50.964;6.800;2023-10-13T05:04:58;16.67;;;10.10;;
17604;SDS011;8921;50.964;6.800;2023-10-13T05:07:32;15.87;;;10.67;;
17604;SDS011;8921;50.964;6.800;2023-10-13T05:10:19;16.03;;;11.00;;
17604;SDS011;8921;50.964;6.800;2023-10-13T05:13:06;17.20;;;10.60;;
17604;SDS011;8921;50.964;6.800;2023-10-13T05:15:53;18.30;;;11.37;;
17604;SDS011;8921;50.964;6.800;2023-10-13T05:18:40;22.60;;;16.50;;
17604;SDS011;8921;50.964;6.800;2023-10-13T05:21:28;23.00;;;15.60;;
17604;SDS011;8921;50.964;6.800;2023-10-13T05:24:14;16.73;;;12.23;;
17604;SDS011;8921;50.964;6.800;2023-10-13T05:27:01;17.33;;;11.03;;
17604;SDS011;8921;50.964;6.800;2023-10-13T05:29:48;18.00;;;10.90;;
17604;SDS011;8921;50.964;6.800;2023-10-13T05:32:35;17.50;;;11.80;;
17604;SDS011;8921;50.964;6.800;2023-10-13T05:35:23;14.20;;;10.43;;
17604;SDS011;8921;50.964;6.800;2023-10-13T05:38:09;19.67;;;11.90;;
17604;SDS011;8921;50.964;6.800;2023-10-13T05:40:57;16.93;;;12.40;;
17604;SDS011;8921;50.964;6.800;2023-10-13T05:43:42;17.60;;;11.80;;
17604;SDS011;8921;50.964;6.800;2023-10-13T05:46:29;23.23;;;13.40;;
17604;SDS011;8921;50.964;6.800;2023-10-13T05:49:07;19.40;;;11.47;;
17604;SDS011;8921;50.964;6.800;2023-10-13T05:51:37;25.47;;;13.40;;
17604;SDS011;8921;50.964;6.800;2023-10-13T05:54:06;17.63;;;12.57;;
17604;SDS011;8921;50.964;6.800;2023-10-13T05:56:40;19.77;;;13.73;;
17604;SDS011;8921;50.964;6.800;2023-10-13T05:59:29;18.07;;;11.80;;
17604;SDS011;8921;50.964;6.800;2023-10-13T06:02:16;19.40;;;12.43;;
17604;SDS011;8921;50.964;6.800;2023-10-13T06:04:47;16.10;;;11.60;;
17604;SDS011;8921;50.964;6.800;2023-10-13T06:07:34;21.50;;;12.47;;
17604;SDS011;8921;50.964;6.800;2023-10-13T06:10:20;23.97;;;12.27;;
17604;SDS011;8921;50.964;6.800;2023-10-13T06:13:07;21.80;;;12.93;;
17604;SDS011;8921;50.964;6.800;2023-10-13T06:15:54;18.87;;;11.60;;
17604;SDS011;8921;50.964;6.800;2023-10-13T06:18:41;20.57;;;12.40;;
17604;SDS011;8921;50.964;6.800;2023-10-13T06:21:28;23.77;;;12.23;;
17604;SDS011;8921;50.964;6.800;2023-10-13T06:24:15;17.00;;;11.80;;
17604;SDS011;8921;50.964;6.800;2023-10-13T06:27:02;18.10;;;12.00;;
17604;SDS011;8921;50.964;6.800;2023-10-13T06:29:49;18.83;;;12.40;;
17604;SDS011;8921;50.964;6.800;2023-10-13T06:32:17;17.77;;;11.90;;
17604;SDS011;8921;50.964;6.800;2023-10-13T06:34:46;18.50;;;11.70;;
17604;SDS011;8921;50.964;6.800;2023-10-13T06:37:14;16.57;;;11.10;;
17604;SDS011;8921;50.964;6.800;2023-10-13T06:39:53;17.67;;;10.70;;
17604;SDS011;8921;50.964;6.800;2023-10-13T06:42:34;27.13;;;12.30;;
17604;SDS011;8921;50.964;6.800;2023-10-13T06:45:03;15.60;;;10.20;;
17604;SDS011;8921;50.964;6.800;2023-10-13T06:47:33;14.70;;;11.40;;
17604;SDS011;8921;50.964;6.800;2023-10-13T06:50:01;23.00;;;11.70;;
17604;SDS011;8921;50.964;6.800;2023-10-13T06:52:30;17.33;;;10.30;;
17604;SDS011;8921;50.964;6.800;2023-10-13T06:54:58;18.00;;;10.20;;
17604;SDS011;8921;50.964;6.800;2023-10-13T06:57:26;17.03;;;10.13;;
17604;SDS011;8921;50.964;6.800;2023-10-13T06:59:55;14.70;;;10.30;;
17604;SDS011;8921;50.964;6.800;2023-10-13T07:02:23;16.90;;;10.77;;
17604;SDS011;8921;50.964;6.800;2023-10-13T07:04:51;13.10;;;9.50;;
17604;SDS011;8921;50.964;6.800;2023-10-13T07:07:35;16.47;;;10.13;;
17604;SDS011;8921;50.964;6.800;2023-10-13T07:10:03;19.73;;;10.63;;
17604;SDS011;8921;50.964;6.800;2023-10-13T07:12:31;13.90;;;9.07;;
17604;SDS011;8921;50.964;6.800;2023-10-13T07:15:00;15.10;;;7.97;;
17604;SDS011;8921;50.964;6.800;2023-10-13T07:17:43;16.47;;;9.40;;
17604;SDS011;8921;50.964;6.800;2023-10-13T07:20:11;15.10;;;9.23;;
17604;SDS011;8921;50.964;6.800;2023-10-13T07:22:42;17.37;;;9.27;;
17604;SDS011;8921;50.964;6.800;2023-10-13T07:25:29;13.97;;;9.07;;
17604;SDS011;8921;50.964;6.800;2023-10-13T07:27:58;14.20;;;9.67;;
17604;SDS011;8921;50.964;6.800;2023-10-13T07:30:28;12.50;;;8.20;;
17604;SDS011;8921;50.964;6.800;2023-10-13T07:32:59;20.30;;;8.20;;
17604;SDS011;8921;50.964;6.800;2023-10-13T07:35:27;12.70;;;8.60;;
17604;SDS011;8921;50.964;6.800;2023-10-13T07:37:56;21.63;;;9.30;;
17604;SDS011;8921;50.964;6.800;2023-10-13T07:40:24;13.80;;;9.43;;
17604;SDS011;8921;50.964;6.800;2023-10-13T07:42:53;16.97;;;8.80;;
17604;SDS011;8921;50.964;6.800;2023-10-13T07:45:30;16.43;;;9.70;;
17604;SDS011;8921;50.964;6.800;2023-10-13T07:48:07;17.63;;;8.80;;
17604;SDS011;8921;50.964;6.800;2023-10-13T07:50:48;10.20;;;6.77;;
17604;SDS011;8921;50.964;6.800;2023-10-13T07:53:15;15.67;;;8.50;;
17604;SDS011;8921;50.964;6.800;2023-10-13T07:55:46;13.13;;;8.90;;
17604;SDS011;8921;50.964;6.800;2023-10-13T07:58:14;16.37;;;7.37;;
17604;SDS011;8921;50.964;6.800;2023-10-13T08:00:43;19.17;;;9.13;;
17604;SDS011;8921;50.964;6.800;2023-10-13T08:03:14;17.63;;;7.07;;
17604;SDS011;8921;50.964;6.800;2023-10-13T08:05:51;15.43;;;7.80;;
17604;SDS011;8921;50.964;6.800;2023-10-13T08:08:25;18.47;;;6.70;;
17604;SDS011;8921;50.964;6.800;2023-10-13T08:10:53;24.20;;;10.97;;
17604;SDS011;8921;50.964;6.800;2023-10-13T08:13:22;39.10;;;13.80;;
17604;SDS011;8921;50.964;6.800;2023-10-13T08:15:50;23.00;;;11.77;;
17604;SDS011;8921;50.964;6.800;2023-10-13T08:18:18;15.90;;;8.67;;
17604;SDS011;8921;50.964;6.800;2023-10-13T08:21:02;19.40;;;9.77;;
17604;SDS011;8921;50.964;6.800;2023-10-13T08:23:30;22.70;;;7.57;;
17604;SDS011;8921;50.964;6.800;2023-10-13T08:26:08;26.40;;;11.73;;
17604;SDS011;8921;50.964;6.800;2023-10-13T08:28:47;18.30;;;10.10;;
17604;SDS011;8921;50.964;6.800;2023-10-13T08:31:15;20.57;;;9.20;;
17604;SDS011;8921;50.964;6.800;2023-10-13T08:33:53;22.60;;;9.40;;
17604;SDS011;8921;50.964;6.800;2023-10-13T08:36:21;14.77;;;6.53;;
17604;SDS011;8921;50.964;6.800;2023-10-13T08:38:55;17.00;;;6.87;;
17604;SDS011;8921;50.964;6.800;2023-10-13T08:41:23;17.03;;;8.27;;
17604;SDS011;8921;50.964;6.800;2023-10-13T08:43:52;16.40;;;5.50;;
17604;SDS011;8921;50.964;6.800;2023-10-13T08:46:20;17.50;;;5.47;;
17604;SDS011;8921;50.964;6.800;2023-10-13T08:48:57;14.93;;;6.40;;
17604;SDS011;8921;50.964;6.800;2023-10-13T08:51:35;14.00;;;5.73;;
17604;SDS011;8921;50.964;6.800;2023-10-13T08:54:02;19.43;;;7.70;;
17604;SDS011;8921;50.964;6.800;2023-10-13T08:56:30;21.30;;;7.23;;
17604;SDS011;8921;50.964;6.800;2023-10-13T08:58:59;13.50;;;6.90;;
17604;SDS011;8921;50.964;6.800;2023-10-13T09:01:31;14.70;;;7.13;;
17604;SDS011;8921;50.964;6.800;2023-10-13T09:04:01;14.13;;;6.70;;
17604;SDS011;8921;50.964;6.800;2023-10-13T09:06:45;16.20;;;6.53;;
17604;SDS011;8921;50.964;6.800;2023-10-13T09:09:32;11.43;;;7.07;;
17604;SDS011;8921;50.964;6.800;2023-10-13T09:15:03;11.73;;;6.30;;
17604;SDS011;8921;50.964;6.800;2023-10-13T09:17:31;15.77;;;6.50;;
17604;SDS011;8921;50.964;6.800;2023-10-13T09:20:00;14.23;;;6.33;;
17604;SDS011;8921;50.964;6.800;2023-10-13T09:22:46;14.20;;;6.07;;
17604;SDS011;8921;50.964;6.800;2023-10-13T09:25:23;14.90;;;6.60;;
17604;SDS011;8921;50.964;6.800;2023-10-13T09:27:51;15.03;;;6.53;;
17604;SDS011;8921;50.964;6.800;2023-10-13T09:30:19;16.10;;;5.97;;
17604;SDS011;8921;50.964;6.800;2023-10-13T09:33:09;11.23;;;5.33;;
17604;SDS011;8921;50.964;6.800;2023-10-13T09:35:28;13.47;;;6.30;;
17604;SDS011;8921;50.964;6.800;2023-10-13T09:37:56;12.77;;;5.83;;
17604;SDS011;8921;50.964;6.800;2023-10-13T09:40:25;17.13;;;6.30;;
17604;SDS011;8921;50.964;6.800;2023-10-13T09:42:53;13.30;;;6.20;;
17604;SDS011;8921;50.964;6.800;2023-10-13T09:45:25;13.73;;;6.53;;
17604;SDS011;8921;50.964;6.800;2023-10-13T09:47:52;18.60;;;8.70;;
17604;SDS011;8921;50.964;6.800;2023-10-13T09:50:21;15.47;;;6.80;;
17604;SDS011;8921;50.964;6.800;2023-10-13T09:52:51;14.37;;;8.03;;
17604;SDS011;8921;50.964;6.800;2023-10-13T09:55:26;12.93;;;6.10;;
17604;SDS011;8921;50.964;6.800;2023-10-13T09:58:00;14.93;;;7.70;;
17604;SDS011;8921;50.964;6.800;2023-10-13T10:00:27;13.07;;;7.30;;
17604;SDS011;8921;50.964;6.800;2023-10-13T10:03:09;14.17;;;7.23;;
17604;SDS011;8921;50.964;6.800;2023-10-13T10:05:58;15.13;;;7.50;;
17604;SDS011;8921;50.964;6.800;2023-10-13T10:08:30;15.37;;;6.30;;
17604;SDS011;8921;50.964;6.800;2023-10-13T10:11:07;13.73;;;7.67;;
17604;SDS011;8921;50.964;6.800;2023-10-13T10:13:36;16.77;;;7.60;;
17604;SDS011;8921;50.964;6.800;2023-10-13T10:16:06;12.93;;;6.40;;
17604;SDS011;8921;50.964;6.800;2023-10-13T10:18:31;23.13;;;8.90;;
17604;SDS011;8921;50.964;6.800;2023-10-13T10:21:03;15.33;;;7.70;;
17604;SDS011;8921;50.964;6.800;2023-10-13T10:23:37;14.37;;;6.67;;
17604;SDS011;8921;50.964;6.800;2023-10-13T10:28:42;17.67;;;7.60;;
17604;SDS011;8921;50.964;6.800;2023-10-13T10:31:10;17.80;;;6.60;;
17604;SDS011;8921;50.964;6.800;2023-10-13T10:33:39;16.70;;;7.30;;
17604;SDS011;8921;50.964;6.800;2023-10-13T10:36:07;13.20;;;6.50;;
17604;SDS011;8921;50.964;6.800;2023-10-13T10:38:35;12.77;;;6.30;;
17604;SDS011;8921;50.964;6.800;2023-10-13T10:41:06;22.23;;;7.07;;
17604;SDS011;8921;50.964;6.800;2023-10-13T10:46:15;14.00;;;7.20;;
17604;SDS011;8921;50.964;6.800;2023-10-13T10:48:43;18.00;;;7.80;;
17604;SDS011;8921;50.964;6.800;2023-10-13T10:51:12;20.17;;;8.33;;
17604;SDS011;8921;50.964;6.800;2023-10-13T10:53:42;20.17;;;7.37;;
17604;SDS011;8921;50.964;6.800;2023-10-13T10:56:11;14.53;;;7.10;;
17604;SDS011;8921;50.964;6.800;2023-10-13T10:58:57;20.97;;;7.60;;
17604;SDS011;8921;50.964;6.800;2023-10-13T11:01:26;14.70;;;6.70;;
17604;SDS011;8921;50.964;6.800;2023-10-13T11:03:56;16.43;;;6.90;;
17604;SDS011;8921;50.964;6.800;2023-10-13T11:06:25;21.23;;;7.50;;
17604;SDS011;8921;50.964;6.800;2023-10-13T11:09:02;16.63;;;6.80;;
17604;SDS011;8921;50.964;6.800;2023-10-13T11:11:30;19.77;;;7.40;;
17604;SDS011;8921;50.964;6.800;2023-10-13T11:14:03;17.53;;;6.90;;
17604;SDS011;8921;50.964;6.800;2023-10-13T11:16:44;21.97;;;7.10;;
17604;SDS011;8921;50.964;6.800;2023-10-13T11:19:15;12.03;;;6.87;;
17604;SDS011;8921;50.964;6.800;2023-10-13T11:21:43;22.30;;;7.00;;
17604;SDS011;8921;50.964;6.800;2023-10-13T11:24:11;13.77;;;6.37;;
17604;SDS011;8921;50.964;6.800;2023-10-13T11:26:40;12.67;;;6.40;;
17604;SDS011;8921;50.964;6.800;2023-10-13T11:29:19;18.70;;;6.40;;
17604;SDS011;8921;50.964;6.800;2023-10-13T11:31:48;10.90;;;4.97;;
17604;SDS011;8921;50.964;6.800;2023-10-13T11:34:26;13.30;;;5.30;;
17604;SDS011;8921;50.964;6.800;2023-10-13T11:36:54;17.30;;;5.53;;
17604;SDS011;8921;50.964;6.800;2023-10-13T11:39:22;12.03;;;6.70;;
17604;SDS011;8921;50.964;6.800;2023-10-13T11:41:50;17.17;;;6.60;;
17604;SDS011;8921;50.964;6.800;2023-10-13T11:44:19;12.93;;;6.23;;
17604;SDS011;8921;50.964;6.800;2023-10-13T11:46:47;23.10;;;6.13;;
17604;SDS011;8921;50.964;6.800;2023-10-13T11:49:15;21.10;;;6.50;;
17604;SDS011;8921;50.964;6.800;2023-10-13T11:51:44;15.33;;;6.50;;
17604;SDS011;8921;50.964;6.800;2023-10-13T11:56:41;17.37;;;7.80;;
17604;SDS011;8921;50.964;6.800;2023-10-13T11:59:08;18.73;;;7.33;;
17604;SDS011;8921;50.964;6.800;2023-10-13T12:01:37;16.90;;;6.57;;
17604;SDS011;8921;50.964;6.800;2023-10-13T12:04:23;13.33;;;5.87;;
17604;SDS011;8921;50.964;6.800;2023-10-13T12:07:10;12.13;;;5.70;;
17604;SDS011;8921;50.964;6.800;2023-10-13T12:09:38;17.90;;;5.40;;
17604;SDS011;8921;50.964;6.800;2023-10-13T12:12:24;14.73;;;5.97;;
17604;SDS011;8921;50.964;6.800;2023-10-13T12:14:55;28.40;;;6.40;;
17604;SDS011;8921;50.964;6.800;2023-10-13T12:17:21;18.83;;;7.63;;
17604;SDS011;8921;50.964;6.800;2023-10-13T12:19:52;14.83;;;7.13;;
17604;SDS011;8921;50.964;6.800;2023-10-13T12:22:20;17.90;;;6.30;;
17604;SDS011;8921;50.964;6.800;2023-10-13T12:25:06;12.10;;;5.47;;
17604;SDS011;8921;50.964;6.800;2023-10-13T12:27:53;16.93;;;6.17;;
17604;SDS011;8921;50.964;6.800;2023-10-13T12:30:21;20.40;;;5.87;;
17604;SDS011;8921;50.964;6.800;2023-10-13T12:32:50;19.40;;;7.03;;
17604;SDS011;8921;50.964;6.800;2023-10-13T12:35:18;23.33;;;5.83;;
17604;SDS011;8921;50.964;6.800;2023-10-13T12:38:01;12.37;;;4.77;;
17604;SDS011;8921;50.964;6.800;2023-10-13T12:40:32;22.77;;;6.80;;
17604;SDS011;8921;50.964;6.800;2023-10-13T12:43:19;14.00;;;5.90;;
17604;SDS011;8921;50.964;6.800;2023-10-13T12:46:06;11.50;;;5.53;;
17604;SDS011;8921;50.964;6.800;2023-10-13T12:48:53;11.60;;;6.03;;
17604;SDS011;8921;50.964;6.800;2023-10-13T12:51:24;18.57;;;4.70;;
17604;SDS011;8921;50.964;6.800;2023-10-13T12:54:00;21.10;;;6.90;;
17604;SDS011;8921;50.964;6.800;2023-10-13T12:56:32;13.93;;;6.17;;
17604;SDS011;8921;50.964;6.800;2023-10-13T12:59:01;21.07;;;6.70;;
17604;SDS011;8921;50.964;6.800;2023-10-13T13:01:29;15.30;;;6.33;;
17604;SDS011;8921;50.964;6.800;2023-10-13T13:04:00;18.77;;;6.80;;
17604;SDS011;8921;50.964;6.800;2023-10-13T13:06:28;13.10;;;6.43;;
17604;SDS011;8921;50.964;6.800;2023-10-13T13:08:57;17.30;;;6.90;;
17604;SDS011;8921;50.964;6.800;2023-10-13T13:11:25;21.63;;;5.97;;
17604;SDS011;8921;50.964;6.800;2023-10-13T13:13:56;18.43;;;5.47;;
17604;SDS011;8921;50.964;6.800;2023-10-13T13:16:24;17.43;;;6.10;;
17604;SDS011;8921;50.964;6.800;2023-10-13T13:18:53;14.90;;;5.97;;
17604;SDS011;8921;50.964;6.800;2023-10-13T13:21:21;15.97;;;6.60;;
17604;SDS011;8921;50.964;6.800;2023-10-13T13:23:52;21.13;;;6.97;;
17604;SDS011;8921;50.964;6.800;2023-10-13T13:26:20;17.77;;;6.47;;
17604;SDS011;8921;50.964;6.800;2023-10-13T13:28:48;14.47;;;5.40;;
17604;SDS011;8921;50.964;6.800;2023-10-13T13:31:17;20.87;;;6.17;;
17604;SDS011;8921;50.964;6.800;2023-10-13T13:33:45;16.67;;;6.40;;
17604;SDS011;8921;50.964;6.800;2023-10-13T13:36:13;25.70;;;6.97;;
17604;SDS011;8921;50.964;6.800;2023-10-13T13:38:42;18.73;;;9.10;;
17604;SDS011;8921;50.964;6.800;2023-10-13T13:41:13;16.07;;;5.90;;
17604;SDS011;8921;50.964;6.800;2023-10-13T13:43:41;21.70;;;6.33;;
17604;SDS011;8921;50.964;6.800;2023-10-13T13:46:09;20.73;;;6.57;;
17604;SDS011;8921;50.964;6.800;2023-10-13T13:48:38;21.03;;;7.30;;
17604;SDS011;8921;50.964;6.800;2023-10-13T13:51:06;15.50;;;6.50;;
17604;SDS011;8921;50.964;6.800;2023-10-13T13:53:42;21.10;;;6.43;;
17604;SDS011;8921;50.964;6.800;2023-10-13T13:56:11;14.40;;;5.60;;
17604;SDS011;8921;50.964;6.800;2023-10-13T13:58:45;14.40;;;5.80;;
17604;SDS011;8921;50.964;6.800;2023-10-13T14:01:13;15.87;;;5.90;;
17604;SDS011;8921;50.964;6.800;2023-10-13T14:03:42;15.43;;;6.37;;
17604;SDS011;8921;50.964;6.800;2023-10-13T14:06:13;18.10;;;6.37;;
17604;SDS011;8921;50.964;6.800;2023-10-13T14:08:50;25.90;;;9.70;;
17604;SDS011;8921;50.964;6.800;2023-10-13T14:11:18;18.10;;;6.30;;
17604;SDS011;8921;50.964;6.800;2023-10-13T14:13:49;17.33;;;5.50;;
17604;SDS011;8921;50.964;6.800;2023-10-13T14:16:18;14.80;;;5.97;;
17604;SDS011;8921;50.964;6.800;2023-10-13T14:18:48;16.00;;;5.87;;
17604;SDS011;8921;50.964;6.800;2023-10-13T14:21:19;14.20;;;5.50;;
17604;SDS011;8921;50.964;6.800;2023-10-13T14:23:48;10.93;;;5.27;;
17604;SDS011;8921;50.964;6.800;2023-10-13T14:26:16;16.03;;;5.80;;
17604;SDS011;8921;50.964;6.800;2023-10-13T14:28:44;13.37;;;5.10;;
17604;SDS011;8921;50.964;6.800;2023-10-13T14:31:18;16.07;;;5.77;;
17604;SDS011;8921;50.964;6.800;2023-10-13T14:33:46;19.37;;;5.60;;
17604;SDS011;8921;50.964;6.800;2023-10-13T14:36:15;17.50;;;7.23;;
17604;SDS011;8921;50.964;6.800;2023-10-13T14:38:43;22.20;;;8.00;;
17604;SDS011;8921;50.964;6.800;2023-10-13T14:41:11;12.80;;;5.60;;
17604;SDS011;8921;50.964;6.800;2023-10-13T14:43:40;16.10;;;6.43;;
17604;SDS011;8921;50.964;6.800;2023-10-13T14:46:08;12.30;;;5.23;;
17604;SDS011;8921;50.964;6.800;2023-10-13T14:48:36;18.90;;;6.50;;
17604;SDS011;8921;50.964;6.800;2023-10-13T14:51:08;21.13;;;6.10;;
17604;SDS011;8921;50.964;6.800;2023-10-13T14:53:33;22.73;;;6.80;;
17604;SDS011;8921;50.964;6.800;2023-10-13T14:56:01;20.10;;;5.30;;
17604;SDS011;8921;50.964;6.800;2023-10-13T14:58:29;12.53;;;6.57;;
17604;SDS011;8921;50.964;6.800;2023-10-13T15:00:58;15.50;;;5.63;;
17604;SDS011;8921;50.964;6.800;2023-10-13T15:03:26;15.93;;;6.50;;
17604;SDS011;8921;50.964;6.800;2023-10-13T15:05:54;14.97;;;7.60;;
17604;SDS011;8921;50.964;6.800;2023-10-13T15:08:22;17.90;;;5.30;;
17604;SDS011;8921;50.964;6.800;2023-10-13T15:10:51;15.03;;;5.90;;
17604;SDS011;8921;50.964;6.800;2023-10-13T15:13:19;18.30;;;6.80;;
17604;SDS011;8921;50.964;6.800;2023-10-13T15:15:47;16.07;;;5.83;;
17604;SDS011;8921;50.964;6.800;2023-10-13T15:18:16;13.70;;;5.53;;
17604;SDS011;8921;50.964;6.800;2023-10-13T15:20:44;17.27;;;6.40;;
17604;SDS011;8921;50.964;6.800;2023-10-13T15:23:12;14.33;;;6.37;;
17604;SDS011;8921;50.964;6.800;2023-10-13T15:25:40;15.63;;;6.73;;
17604;SDS011;8921;50.964;6.800;2023-10-13T15:28:09;17.13;;;7.90;;
17604;SDS011;8921;50.964;6.800;2023-10-13T15:30:37;14.30;;;5.43;;